AQQ10 IFIS: Internet Flight Information System
logo dgac
Martes 21 de Septiembre del 2021
Buscar por aerodromo o helipuerto
Ingrese nombre de aeródromo, localidad o designador OACI:
METAR del 21-09-2021 a las 10:00 UTC
Para mayor información visite www.meteochile.cl
METAR SCTE 211000Z 18009KT 9999 SCT008 OVC010 08/07 Q1020 NOSIG
Viento: dirección 180 grados, velocidad 9 nudos
Visibilidad: 10 km o más
Nubes: Nubosidad parcial a 800 pies sobre el nivel del aeródromo
Nubes: Cubierto a 1000 pies sobre el nivel del aeródromo
Temperatura: 8 °C
Rocío: 7 °C
Humedad_relativa: 93%
Presión: 1020 hPa
No se esperan cambios significativos en las próximas 2 horas
METAR del 21-09-2021 a las 09:00 UTC
Para mayor información visite www.meteochile.cl
METAR SCTE 210900Z 18010KT 9999 OVC008 08/07 Q1020 NOSIG
Viento: dirección 180 grados, velocidad 10 nudos
Visibilidad: 10 km o más
Nubes: Cubierto a 800 pies sobre el nivel del aeródromo
Temperatura: 8 °C
Rocío: 7 °C
Humedad_relativa: 93%
Presión: 1020 hPa
No se esperan cambios significativos en las próximas 2 horas
METAR del 21-09-2021 a las 08:00 UTC
Para mayor información visite www.meteochile.cl
METAR SCTE 210800Z 23006KT 9999 BKN010 08/07 Q1021 NOSIG
Viento: dirección 230 grados, velocidad 6 nudos
Visibilidad: 10 km o más
Nubes: Nublado a 1000 pies sobre el nivel del aeródromo
Temperatura: 8 °C
Rocío: 7 °C
Humedad_relativa: 93%
Presión: 1021 hPa
No se esperan cambios significativos en las próximas 2 horas
METAR del 21-09-2021 a las 07:00 UTC
Para mayor información visite www.meteochile.cl
METAR SCTE 210700Z 22005KT 9999 BKN010 07/06 Q1022 NOSIG
Viento: dirección 220 grados, velocidad 5 nudos
Visibilidad: 10 km o más
Nubes: Nublado a 1000 pies sobre el nivel del aeródromo
Temperatura: 7 °C
Rocío: 6 °C
Humedad_relativa: 93%
Presión: 1022 hPa
No se esperan cambios significativos en las próximas 2 horas
METAR del 21-09-2021 a las 06:00 UTC
Para mayor información visite www.meteochile.cl
METAR SCTE 210600Z 27003KT 230V290 9999 BKN010 05/05 Q1024 NOSIG
Viento: dirección 270 grados, velocidad 3 nudos
Viento con dirección variable entre 230 y 290 grados
Visibilidad: 10 km o más
Nubes: Nublado a 1000 pies sobre el nivel del aeródromo
Temperatura: 5 °C
Rocío: 5 °C
Humedad_relativa: 100%
Presión: 1024 hPa
No se esperan cambios significativos en las próximas 2 horas
METAR del 21-09-2021 a las 05:00 UTC
Para mayor información visite www.meteochile.cl
METAR SCTE 210500Z NIL
METAR del 21-09-2021 a las 04:00 UTC
Para mayor información visite www.meteochile.cl
METAR SCTE 210400Z 25006KT 9999 SCT010 05/05 Q1025 NOSIG
Viento: dirección 250 grados, velocidad 6 nudos
Visibilidad: 10 km o más
Nubes: Nubosidad parcial a 1000 pies sobre el nivel del aeródromo
Temperatura: 5 °C
Rocío: 5 °C
Humedad_relativa: 100%
Presión: 1025 hPa
No se esperan cambios significativos en las próximas 2 horas
METAR del 21-09-2021 a las 03:00 UTC
Para mayor información visite www.meteochile.cl
METAR SCTE 210300Z 24006KT CAVOK 04/04 Q1026 NOSIG
Viento: dirección 240 grados, velocidad 6 nudos
Visibilidad: 10 km o más,
    sin nubes bajo los 5.000 pies o bajo del MSA (Mínimo de Seguridad del Aeródromo),
    sin cumulonimbus, y sin fenómenos de tiempo significativo en el aeródromo o alrededores
Temperatura: 4 °C
Rocío: 4 °C
Humedad_relativa: 100%
Presión: 1026 hPa
No se esperan cambios significativos en las próximas 2 horas
METAR del 21-09-2021 a las 02:00 UTC
Para mayor información visite www.meteochile.cl
METAR SCTE 210200Z 22004KT 190V280 CAVOK 06/05 Q1026 NOSIG
Viento: dirección 220 grados, velocidad 4 nudos
Viento con dirección variable entre 190 y 280 grados
Visibilidad: 10 km o más,
    sin nubes bajo los 5.000 pies o bajo del MSA (Mínimo de Seguridad del Aeródromo),
    sin cumulonimbus, y sin fenómenos de tiempo significativo en el aeródromo o alrededores
Temperatura: 6 °C
Rocío: 5 °C
Humedad_relativa: 93%
Presión: 1026 hPa
No se esperan cambios significativos en las próximas 2 horas
METAR del 21-09-2021 a las 01:00 UTC
Para mayor información visite www.meteochile.cl
METAR SCTE 210100Z 19005KT CAVOK 07/05 Q1027 NOSIG
Viento: dirección 190 grados, velocidad 5 nudos
Visibilidad: 10 km o más,
    sin nubes bajo los 5.000 pies o bajo del MSA (Mínimo de Seguridad del Aeródromo),
    sin cumulonimbus, y sin fenómenos de tiempo significativo en el aeródromo o alrededores
Temperatura: 7 °C
Rocío: 5 °C
Humedad_relativa: 87%
Presión: 1027 hPa
No se esperan cambios significativos en las próximas 2 horas